sensor_id;sensor_type;location;lat;lon;timestamp;P1;durP1;ratioP1;P2;durP2;ratioP2
79074;SDS011;68476;42.710;23.388;2024-03-23T00:55:06;17.92;;;10.63;;
79074;SDS011;68476;42.710;23.388;2024-03-23T00:57:32;20.73;;;10.75;;
79074;SDS011;68476;42.710;23.388;2024-03-23T00:59:58;17.23;;;10.43;;
79074;SDS011;68476;42.710;23.388;2024-03-23T01:02:23;19.85;;;11.10;;
79074;SDS011;68476;42.710;23.388;2024-03-23T01:04:49;18.55;;;10.60;;
79074;SDS011;68476;42.710;23.388;2024-03-23T01:07:14;20.17;;;10.73;;
79074;SDS011;68476;42.710;23.388;2024-03-23T01:09:40;19.80;;;11.40;;
79074;SDS011;68476;42.710;23.388;2024-03-23T01:12:05;21.10;;;11.77;;
79074;SDS011;68476;42.710;23.388;2024-03-23T01:14:31;18.42;;;10.40;;
79074;SDS011;68476;42.710;23.388;2024-03-23T01:16:56;17.48;;;10.82;;
79074;SDS011;68476;42.710;23.388;2024-03-23T01:19:22;18.77;;;10.73;;
79074;SDS011;68476;42.710;23.388;2024-03-23T01:21:47;18.08;;;10.48;;
79074;SDS011;68476;42.710;23.388;2024-03-23T01:24:14;19.30;;;10.75;;
79074;SDS011;68476;42.710;23.388;2024-03-23T01:26:40;19.05;;;10.00;;
79074;SDS011;68476;42.710;23.388;2024-03-23T01:29:05;20.10;;;9.73;;
79074;SDS011;68476;42.710;23.388;2024-03-23T01:31:30;17.10;;;10.73;;
79074;SDS011;68476;42.710;23.388;2024-03-23T01:33:57;19.33;;;10.15;;
79074;SDS011;68476;42.710;23.388;2024-03-23T01:36:23;16.27;;;9.70;;
79074;SDS011;68476;42.710;23.388;2024-03-23T01:38:49;20.02;;;10.70;;
79074;SDS011;68476;42.710;23.388;2024-03-23T01:41:14;17.92;;;9.95;;
79074;SDS011;68476;42.710;23.388;2024-03-23T01:43:40;13.80;;;9.63;;
79074;SDS011;68476;42.710;23.388;2024-03-23T01:46:06;16.85;;;9.55;;
79074;SDS011;68476;42.710;23.388;2024-03-23T01:48:32;19.17;;;9.90;;
79074;SDS011;68476;42.710;23.388;2024-03-23T01:50:57;19.27;;;9.88;;
79074;SDS011;68476;42.710;23.388;2024-03-23T01:53:23;17.75;;;10.45;;
79074;SDS011;68476;42.710;23.388;2024-03-23T01:55:50;18.35;;;10.07;;
79074;SDS011;68476;42.710;23.388;2024-03-23T01:58:16;18.35;;;10.13;;
79074;SDS011;68476;42.710;23.388;2024-03-23T02:00:42;17.70;;;9.70;;
79074;SDS011;68476;42.710;23.388;2024-03-23T02:03:41;18.92;;;10.20;;
79074;SDS011;68476;42.710;23.388;2024-03-23T02:05:59;22.63;;;9.95;;
79074;SDS011;68476;42.710;23.388;2024-03-23T02:08:25;16.27;;;9.98;;
79074;SDS011;68476;42.710;23.388;2024-03-23T02:10:50;17.38;;;9.60;;
79074;SDS011;68476;42.710;23.388;2024-03-23T02:13:17;18.55;;;10.27;;
79074;SDS011;68476;42.710;23.388;2024-03-23T02:15:43;20.20;;;10.38;;
79074;SDS011;68476;42.710;23.388;2024-03-23T02:18:09;19.77;;;10.35;;
79074;SDS011;68476;42.710;23.388;2024-03-23T02:20:36;22.60;;;10.82;;
79074;SDS011;68476;42.710;23.388;2024-03-23T02:23:02;19.02;;;10.82;;
79074;SDS011;68476;42.710;23.388;2024-03-23T02:25:29;20.63;;;11.35;;
79074;SDS011;68476;42.710;23.388;2024-03-23T02:27:55;21.85;;;10.70;;
79074;SDS011;68476;42.710;23.388;2024-03-23T02:30:20;22.33;;;11.02;;
79074;SDS011;68476;42.710;23.388;2024-03-23T02:32:46;20.88;;;10.57;;
79074;SDS011;68476;42.710;23.388;2024-03-23T02:35:11;20.98;;;11.10;;
79074;SDS011;68476;42.710;23.388;2024-03-23T02:37:37;17.83;;;10.02;;
79074;SDS011;68476;42.710;23.388;2024-03-23T02:40:03;21.42;;;11.52;;
79074;SDS011;68476;42.710;23.388;2024-03-23T02:42:28;18.15;;;10.15;;
79074;SDS011;68476;42.710;23.388;2024-03-23T02:44:54;16.92;;;8.93;;
79074;SDS011;68476;42.710;23.388;2024-03-23T02:47:19;17.92;;;10.48;;
79074;SDS011;68476;42.710;23.388;2024-03-23T02:49:45;20.80;;;10.80;;
79074;SDS011;68476;42.710;23.388;2024-03-23T02:52:10;22.08;;;11.05;;
79074;SDS011;68476;42.710;23.388;2024-03-23T02:54:36;23.10;;;11.40;;
79074;SDS011;68476;42.710;23.388;2024-03-23T02:57:01;18.40;;;10.52;;
79074;SDS011;68476;42.710;23.388;2024-03-23T02:59:27;18.10;;;10.20;;
79074;SDS011;68476;42.710;23.388;2024-03-23T03:01:53;18.55;;;10.20;;
79074;SDS011;68476;42.710;23.388;2024-03-23T03:04:18;19.45;;;10.18;;
79074;SDS011;68476;42.710;23.388;2024-03-23T03:06:47;16.08;;;9.38;;
79074;SDS011;68476;42.710;23.388;2024-03-23T03:09:12;18.10;;;9.77;;
79074;SDS011;68476;42.710;23.388;2024-03-23T03:11:38;15.80;;;8.48;;
79074;SDS011;68476;42.710;23.388;2024-03-23T03:14:03;19.00;;;10.00;;
79074;SDS011;68476;42.710;23.388;2024-03-23T03:16:29;16.67;;;9.27;;
79074;SDS011;68476;42.710;23.388;2024-03-23T03:18:54;16.45;;;9.10;;
79074;SDS011;68476;42.710;23.388;2024-03-23T03:21:21;15.35;;;8.45;;
79074;SDS011;68476;42.710;23.388;2024-03-23T03:23:47;18.83;;;8.65;;
79074;SDS011;68476;42.710;23.388;2024-03-23T03:26:15;13.13;;;8.13;;
79074;SDS011;68476;42.710;23.388;2024-03-23T03:28:41;16.60;;;8.15;;
79074;SDS011;68476;42.710;23.388;2024-03-23T03:31:07;20.55;;;9.70;;
79074;SDS011;68476;42.710;23.388;2024-03-23T03:33:32;12.85;;;7.65;;
79074;SDS011;68476;42.710;23.388;2024-03-23T03:35:57;16.30;;;8.65;;
79074;SDS011;68476;42.710;23.388;2024-03-23T03:38:23;16.27;;;7.97;;
79074;SDS011;68476;42.710;23.388;2024-03-23T03:40:48;15.77;;;7.55;;
79074;SDS011;68476;42.710;23.388;2024-03-23T03:43:14;14.27;;;7.30;;
79074;SDS011;68476;42.710;23.388;2024-03-23T03:45:39;15.05;;;8.65;;
79074;SDS011;68476;42.710;23.388;2024-03-23T03:48:05;14.82;;;7.72;;
79074;SDS011;68476;42.710;23.388;2024-03-23T03:50:31;18.27;;;9.60;;
79074;SDS011;68476;42.710;23.388;2024-03-23T03:52:56;16.20;;;8.45;;
79074;SDS011;68476;42.710;23.388;2024-03-23T03:55:22;15.10;;;8.27;;
79074;SDS011;68476;42.710;23.388;2024-03-23T03:57:47;14.55;;;7.53;;
79074;SDS011;68476;42.710;23.388;2024-03-23T04:00:13;16.42;;;9.00;;
79074;SDS011;68476;42.710;23.388;2024-03-23T04:02:38;14.52;;;8.20;;
79074;SDS011;68476;42.710;23.388;2024-03-23T04:05:04;13.05;;;7.53;;
79074;SDS011;68476;42.710;23.388;2024-03-23T04:07:30;16.45;;;8.75;;
79074;SDS011;68476;42.710;23.388;2024-03-23T04:09:55;15.13;;;9.00;;
79074;SDS011;68476;42.710;23.388;2024-03-23T04:12:21;15.98;;;8.70;;
79074;SDS011;68476;42.710;23.388;2024-03-23T04:14:47;15.05;;;8.23;;
79074;SDS011;68476;42.710;23.388;2024-03-23T04:17:12;15.40;;;8.50;;
79074;SDS011;68476;42.710;23.388;2024-03-23T04:19:37;15.95;;;8.15;;
79074;SDS011;68476;42.710;23.388;2024-03-23T04:22:04;11.80;;;7.20;;
79074;SDS011;68476;42.710;23.388;2024-03-23T04:24:30;12.13;;;7.63;;
79074;SDS011;68476;42.710;23.388;2024-03-23T04:26:55;15.00;;;7.95;;
79074;SDS011;68476;42.710;23.388;2024-03-23T04:29:21;15.05;;;7.78;;
79074;SDS011;68476;42.710;23.388;2024-03-23T04:31:46;13.35;;;7.30;;
79074;SDS011;68476;42.710;23.388;2024-03-23T04:34:12;13.63;;;7.95;;
79074;SDS011;68476;42.710;23.388;2024-03-23T04:36:38;13.45;;;7.82;;
79074;SDS011;68476;42.710;23.388;2024-03-23T04:39:05;14.48;;;8.18;;
79074;SDS011;68476;42.710;23.388;2024-03-23T04:41:33;15.18;;;7.82;;
79074;SDS011;68476;42.710;23.388;2024-03-23T04:43:59;16.45;;;8.05;;
79074;SDS011;68476;42.710;23.388;2024-03-23T04:46:25;13.10;;;8.05;;
79074;SDS011;68476;42.710;23.388;2024-03-23T04:48:50;12.30;;;8.25;;
79074;SDS011;68476;42.710;23.388;2024-03-23T04:51:20;14.43;;;7.30;;
79074;SDS011;68476;42.710;23.388;2024-03-23T04:53:48;14.02;;;8.40;;
79074;SDS011;68476;42.710;23.388;2024-03-23T04:56:14;16.27;;;8.85;;
79074;SDS011;68476;42.710;23.388;2024-03-23T04:58:40;16.33;;;8.00;;
79074;SDS011;68476;42.710;23.388;2024-03-23T05:01:06;14.13;;;8.50;;
79074;SDS011;68476;42.710;23.388;2024-03-23T05:03:31;13.98;;;8.98;;
79074;SDS011;68476;42.710;23.388;2024-03-23T05:05:57;14.70;;;8.45;;
79074;SDS011;68476;42.710;23.388;2024-03-23T05:08:23;18.73;;;9.57;;
79074;SDS011;68476;42.710;23.388;2024-03-23T05:10:49;15.95;;;8.35;;
79074;SDS011;68476;42.710;23.388;2024-03-23T05:13:14;14.93;;;9.02;;
79074;SDS011;68476;42.710;23.388;2024-03-23T05:15:39;17.70;;;8.60;;
79074;SDS011;68476;42.710;23.388;2024-03-23T05:18:05;20.75;;;9.02;;
79074;SDS011;68476;42.710;23.388;2024-03-23T05:20:31;14.02;;;7.57;;
79074;SDS011;68476;42.710;23.388;2024-03-23T05:22:57;20.58;;;9.52;;
79074;SDS011;68476;42.710;23.388;2024-03-23T05:25:22;18.17;;;11.43;;
79074;SDS011;68476;42.710;23.388;2024-03-23T05:27:48;24.67;;;12.05;;
79074;SDS011;68476;42.710;23.388;2024-03-23T05:30:14;18.75;;;11.32;;
79074;SDS011;68476;42.710;23.388;2024-03-23T05:32:40;19.23;;;10.90;;
79074;SDS011;68476;42.710;23.388;2024-03-23T05:35:07;16.60;;;8.57;;
79074;SDS011;68476;42.710;23.388;2024-03-23T05:37:33;20.85;;;9.35;;
79074;SDS011;68476;42.710;23.388;2024-03-23T05:42:28;15.88;;;8.32;;
79074;SDS011;68476;42.710;23.388;2024-03-23T05:44:54;14.90;;;9.23;;
79074;SDS011;68476;42.710;23.388;2024-03-23T05:47:20;17.85;;;10.02;;
79074;SDS011;68476;42.710;23.388;2024-03-23T05:49:45;18.30;;;10.32;;
79074;SDS011;68476;42.710;23.388;2024-03-23T05:52:11;21.02;;;11.32;;
79074;SDS011;68476;42.710;23.388;2024-03-23T05:54:37;20.85;;;10.85;;
79074;SDS011;68476;42.710;23.388;2024-03-23T05:57:03;17.48;;;9.93;;
79074;SDS011;68476;42.710;23.388;2024-03-23T05:59:29;16.40;;;9.55;;
79074;SDS011;68476;42.710;23.388;2024-03-23T06:01:54;15.63;;;9.55;;
79074;SDS011;68476;42.710;23.388;2024-03-23T06:04:20;15.25;;;8.93;;
79074;SDS011;68476;42.710;23.388;2024-03-23T06:06:46;15.85;;;9.65;;
79074;SDS011;68476;42.710;23.388;2024-03-23T06:09:12;15.10;;;9.20;;
79074;SDS011;68476;42.710;23.388;2024-03-23T06:11:37;17.17;;;9.25;;
79074;SDS011;68476;42.710;23.388;2024-03-23T06:14:03;14.07;;;8.45;;
79074;SDS011;68476;42.710;23.388;2024-03-23T06:16:29;15.23;;;8.77;;
79074;SDS011;68476;42.710;23.388;2024-03-23T06:18:55;12.32;;;7.35;;
79074;SDS011;68476;42.710;23.388;2024-03-23T06:21:21;14.80;;;8.18;;
79074;SDS011;68476;42.710;23.388;2024-03-23T06:23:50;14.90;;;9.13;;
79074;SDS011;68476;42.710;23.388;2024-03-23T06:26:20;12.75;;;8.00;;
79074;SDS011;68476;42.710;23.388;2024-03-23T06:28:46;13.55;;;8.80;;
79074;SDS011;68476;42.710;23.388;2024-03-23T06:31:12;12.90;;;8.50;;
79074;SDS011;68476;42.710;23.388;2024-03-23T06:33:38;15.20;;;9.07;;
79074;SDS011;68476;42.710;23.388;2024-03-23T06:36:04;15.07;;;9.10;;
79074;SDS011;68476;42.710;23.388;2024-03-23T06:38:30;14.68;;;8.57;;
79074;SDS011;68476;42.710;23.388;2024-03-23T06:40:56;14.98;;;9.82;;
79074;SDS011;68476;42.710;23.388;2024-03-23T06:43:23;13.30;;;8.55;;
79074;SDS011;68476;42.710;23.388;2024-03-23T06:45:54;15.70;;;8.45;;
79074;SDS011;68476;42.710;23.388;2024-03-23T06:48:20;15.45;;;9.23;;
79074;SDS011;68476;42.710;23.388;2024-03-23T06:50:46;14.50;;;8.98;;
79074;SDS011;68476;42.710;23.388;2024-03-23T06:53:13;14.90;;;8.73;;
79074;SDS011;68476;42.710;23.388;2024-03-23T06:55:39;15.20;;;10.13;;
79074;SDS011;68476;42.710;23.388;2024-03-23T06:58:04;13.52;;;8.82;;
79074;SDS011;68476;42.710;23.388;2024-03-23T07:00:30;14.27;;;8.68;;
79074;SDS011;68476;42.710;23.388;2024-03-23T07:02:57;12.07;;;9.25;;
79074;SDS011;68476;42.710;23.388;2024-03-23T07:05:22;16.67;;;9.25;;
79074;SDS011;68476;42.710;23.388;2024-03-23T07:07:48;13.98;;;8.32;;
79074;SDS011;68476;42.710;23.388;2024-03-23T07:10:15;16.25;;;10.00;;
79074;SDS011;68476;42.710;23.388;2024-03-23T07:12:40;19.40;;;8.50;;
79074;SDS011;68476;42.710;23.388;2024-03-23T07:15:06;14.02;;;9.35;;
79074;SDS011;68476;42.710;23.388;2024-03-23T07:17:33;13.60;;;8.50;;
79074;SDS011;68476;42.710;23.388;2024-03-23T07:20:00;15.15;;;9.00;;
79074;SDS011;68476;42.710;23.388;2024-03-23T07:22:29;15.50;;;9.23;;
79074;SDS011;68476;42.710;23.388;2024-03-23T07:24:55;14.32;;;8.98;;
79074;SDS011;68476;42.710;23.388;2024-03-23T07:27:20;15.48;;;9.15;;
79074;SDS011;68476;42.710;23.388;2024-03-23T07:29:46;13.35;;;9.05;;
79074;SDS011;68476;42.710;23.388;2024-03-23T07:32:11;15.68;;;9.13;;
79074;SDS011;68476;42.710;23.388;2024-03-23T07:34:37;15.38;;;9.18;;
79074;SDS011;68476;42.710;23.388;2024-03-23T07:37:02;15.82;;;9.82;;
79074;SDS011;68476;42.710;23.388;2024-03-23T07:39:28;14.73;;;8.52;;
79074;SDS011;68476;42.710;23.388;2024-03-23T07:41:53;14.82;;;9.48;;
79074;SDS011;68476;42.710;23.388;2024-03-23T07:44:19;13.40;;;8.52;;
79074;SDS011;68476;42.710;23.388;2024-03-23T07:46:44;14.80;;;8.82;;
79074;SDS011;68476;42.710;23.388;2024-03-23T07:49:10;13.98;;;8.30;;
79074;SDS011;68476;42.710;23.388;2024-03-23T07:51:35;16.42;;;9.07;;
79074;SDS011;68476;42.710;23.388;2024-03-23T07:54:01;18.90;;;9.23;;
79074;SDS011;68476;42.710;23.388;2024-03-23T07:56:26;12.88;;;7.85;;
79074;SDS011;68476;42.710;23.388;2024-03-23T07:58:52;14.00;;;8.73;;
79074;SDS011;68476;42.710;23.388;2024-03-23T08:01:17;12.13;;;8.57;;
79074;SDS011;68476;42.710;23.388;2024-03-23T08:03:43;13.63;;;8.48;;
79074;SDS011;68476;42.710;23.388;2024-03-23T08:08:35;13.40;;;8.27;;
79074;SDS011;68476;42.710;23.388;2024-03-23T08:11:01;13.68;;;9.18;;
79074;SDS011;68476;42.710;23.388;2024-03-23T08:13:26;14.65;;;9.10;;
79074;SDS011;68476;42.710;23.388;2024-03-23T08:15:55;13.52;;;8.98;;
79074;SDS011;68476;42.710;23.388;2024-03-23T08:18:24;13.18;;;8.45;;
79074;SDS011;68476;42.710;23.388;2024-03-23T08:21:00;14.35;;;8.30;;
79074;SDS011;68476;42.710;23.388;2024-03-23T08:23:26;15.05;;;8.15;;
79074;SDS011;68476;42.710;23.388;2024-03-23T08:25:52;15.55;;;8.02;;
79074;SDS011;68476;42.710;23.388;2024-03-23T08:28:23;18.58;;;8.65;;
79074;SDS011;68476;42.710;23.388;2024-03-23T08:30:48;8.18;;;5.40;;
79074;SDS011;68476;42.710;23.388;2024-03-23T08:33:14;10.90;;;6.88;;
79074;SDS011;68476;42.710;23.388;2024-03-23T08:35:40;11.88;;;7.95;;
79074;SDS011;68476;42.710;23.388;2024-03-23T08:38:06;12.65;;;7.80;;
79074;SDS011;68476;42.710;23.388;2024-03-23T08:40:32;12.50;;;8.35;;
79074;SDS011;68476;42.710;23.388;2024-03-23T08:42:57;13.45;;;7.50;;
79074;SDS011;68476;42.710;23.388;2024-03-23T08:45:24;13.70;;;8.10;;
79074;SDS011;68476;42.710;23.388;2024-03-23T08:47:50;13.68;;;7.65;;
79074;SDS011;68476;42.710;23.388;2024-03-23T08:50:15;11.75;;;7.13;;
79074;SDS011;68476;42.710;23.388;2024-03-23T08:52:41;12.82;;;7.28;;
79074;SDS011;68476;42.710;23.388;2024-03-23T08:55:06;11.60;;;6.82;;
79074;SDS011;68476;42.710;23.388;2024-03-23T08:57:32;15.98;;;8.13;;
79074;SDS011;68476;42.710;23.388;2024-03-23T08:59:57;11.98;;;7.72;;
79074;SDS011;68476;42.710;23.388;2024-03-23T09:02:23;14.88;;;7.63;;
79074;SDS011;68476;42.710;23.388;2024-03-23T09:04:48;14.02;;;7.47;;
79074;SDS011;68476;42.710;23.388;2024-03-23T09:07:14;14.85;;;8.23;;
79074;SDS011;68476;42.710;23.388;2024-03-23T09:09:39;11.60;;;7.30;;
79074;SDS011;68476;42.710;23.388;2024-03-23T09:12:05;13.88;;;7.13;;
79074;SDS011;68476;42.710;23.388;2024-03-23T09:14:32;11.52;;;7.07;;
79074;SDS011;68476;42.710;23.388;2024-03-23T09:16:58;12.25;;;7.70;;
79074;SDS011;68476;42.710;23.388;2024-03-23T09:19:26;10.32;;;7.00;;
79074;SDS011;68476;42.710;23.388;2024-03-23T09:21:53;9.52;;;7.07;;
79074;SDS011;68476;42.710;23.388;2024-03-23T09:24:18;10.18;;;7.03;;
79074;SDS011;68476;42.710;23.388;2024-03-23T09:26:44;10.18;;;6.50;;
79074;SDS011;68476;42.710;23.388;2024-03-23T09:29:09;10.63;;;7.18;;
79074;SDS011;68476;42.710;23.388;2024-03-23T09:31:35;11.25;;;6.35;;
79074;SDS011;68476;42.710;23.388;2024-03-23T09:34:01;7.60;;;4.18;;
79074;SDS011;68476;42.710;23.388;2024-03-23T09:36:26;12.43;;;7.28;;
79074;SDS011;68476;42.710;23.388;2024-03-23T09:38:52;12.15;;;6.97;;
79074;SDS011;68476;42.710;23.388;2024-03-23T09:41:17;11.23;;;6.80;;
79074;SDS011;68476;42.710;23.388;2024-03-23T09:43:43;12.02;;;6.65;;
79074;SDS011;68476;42.710;23.388;2024-03-23T09:46:08;13.25;;;8.00;;
79074;SDS011;68476;42.710;23.388;2024-03-23T09:48:34;8.85;;;5.53;;
79074;SDS011;68476;42.710;23.388;2024-03-23T09:51:01;17.15;;;8.02;;
79074;SDS011;68476;42.710;23.388;2024-03-23T09:53:28;11.93;;;8.27;;
79074;SDS011;68476;42.710;23.388;2024-03-23T09:55:53;11.95;;;7.55;;
79074;SDS011;68476;42.710;23.388;2024-03-23T09:58:20;12.90;;;7.88;;
79074;SDS011;68476;42.710;23.388;2024-03-23T10:00:48;11.90;;;7.55;;
79074;SDS011;68476;42.710;23.388;2024-03-23T10:03:14;13.75;;;8.13;;
79074;SDS011;68476;42.710;23.388;2024-03-23T10:05:39;10.35;;;7.78;;
79074;SDS011;68476;42.710;23.388;2024-03-23T10:10:40;11.60;;;8.02;;
79074;SDS011;68476;42.710;23.388;2024-03-23T10:13:06;12.90;;;7.65;;
79074;SDS011;68476;42.710;23.388;2024-03-23T10:15:33;11.27;;;8.55;;
79074;SDS011;68476;42.710;23.388;2024-03-23T10:18:06;12.38;;;7.70;;
79074;SDS011;68476;42.710;23.388;2024-03-23T10:20:43;12.48;;;9.07;;
79074;SDS011;68476;42.710;23.388;2024-03-23T10:23:17;13.70;;;8.95;;
79074;SDS011;68476;42.710;23.388;2024-03-23T10:25:43;13.00;;;9.40;;
79074;SDS011;68476;42.710;23.388;2024-03-23T10:28:09;12.13;;;8.38;;
79074;SDS011;68476;42.710;23.388;2024-03-23T10:30:36;13.23;;;8.43;;
79074;SDS011;68476;42.710;23.388;2024-03-23T10:33:11;11.20;;;8.00;;
79074;SDS011;68476;42.710;23.388;2024-03-23T10:35:37;10.60;;;7.60;;
79074;SDS011;68476;42.710;23.388;2024-03-23T10:38:04;15.05;;;8.70;;
79074;SDS011;68476;42.710;23.388;2024-03-23T10:40:31;12.52;;;8.20;;
79074;SDS011;68476;42.710;23.388;2024-03-23T10:42:59;12.57;;;8.40;;
79074;SDS011;68476;42.710;23.388;2024-03-23T10:45:25;10.68;;;7.50;;
79074;SDS011;68476;42.710;23.388;2024-03-23T10:47:51;8.88;;;7.32;;
79074;SDS011;68476;42.710;23.388;2024-03-23T10:50:17;9.93;;;7.15;;
79074;SDS011;68476;42.710;23.388;2024-03-23T10:52:45;10.88;;;7.32;;
79074;SDS011;68476;42.710;23.388;2024-03-23T10:55:12;9.35;;;7.45;;
79074;SDS011;68476;42.710;23.388;2024-03-23T10:57:41;11.07;;;7.00;;
79074;SDS011;68476;42.710;23.388;2024-03-23T11:00:24;11.00;;;7.55;;
79074;SDS011;68476;42.710;23.388;2024-03-23T11:02:50;10.38;;;6.40;;
79074;SDS011;68476;42.710;23.388;2024-03-23T11:12:57;7.90;;;6.68;;
79074;SDS011;68476;42.710;23.388;2024-03-23T11:15:23;9.02;;;6.50;;
79074;SDS011;68476;42.710;23.388;2024-03-23T11:18:02;8.48;;;6.35;;
79074;SDS011;68476;42.710;23.388;2024-03-23T11:20:32;10.00;;;5.90;;
79074;SDS011;68476;42.710;23.388;2024-03-23T11:22:58;14.10;;;6.10;;
79074;SDS011;68476;42.710;23.388;2024-03-23T11:25:25;8.55;;;6.55;;
79074;SDS011;68476;42.710;23.388;2024-03-23T11:27:52;9.82;;;6.35;;
79074;SDS011;68476;42.710;23.388;2024-03-23T11:30:26;7.80;;;5.82;;
79074;SDS011;68476;42.710;23.388;2024-03-23T11:32:54;7.53;;;6.28;;
79074;SDS011;68476;42.710;23.388;2024-03-23T11:38:12;12.13;;;6.10;;
79074;SDS011;68476;42.710;23.388;2024-03-23T11:40:40;8.18;;;5.65;;
79074;SDS011;68476;42.710;23.388;2024-03-23T11:45:48;9.15;;;5.50;;
79074;SDS011;68476;42.710;23.388;2024-03-23T11:48:20;9.48;;;5.32;;
79074;SDS011;68476;42.710;23.388;2024-03-23T11:50:47;9.07;;;5.30;;
79074;SDS011;68476;42.710;23.388;2024-03-23T11:53:23;8.65;;;5.55;;
79074;SDS011;68476;42.710;23.388;2024-03-23T11:55:50;8.82;;;5.45;;
79074;SDS011;68476;42.710;23.388;2024-03-23T11:58:23;7.82;;;5.40;;
79074;SDS011;68476;42.710;23.388;2024-03-23T12:00:50;7.18;;;4.97;;
79074;SDS011;68476;42.710;23.388;2024-03-23T12:03:19;9.35;;;5.55;;
79074;SDS011;68476;42.710;23.388;2024-03-23T12:05:51;8.48;;;5.75;;
79074;SDS011;68476;42.710;23.388;2024-03-23T12:10:53;8.05;;;5.85;;
79074;SDS011;68476;42.710;23.388;2024-03-23T12:13:40;7.45;;;5.80;;
79074;SDS011;68476;42.710;23.388;2024-03-23T12:16:18;7.60;;;5.28;;
79074;SDS011;68476;42.710;23.388;2024-03-23T12:18:48;21.75;;;11.32;;
79074;SDS011;68476;42.710;23.388;2024-03-23T12:21:16;7.28;;;5.40;;
79074;SDS011;68476;42.710;23.388;2024-03-23T12:23:42;11.57;;;5.50;;
79074;SDS011;68476;42.710;23.388;2024-03-23T12:26:11;8.93;;;5.43;;
79074;SDS011;68476;42.710;23.388;2024-03-23T12:28:37;10.18;;;5.53;;
79074;SDS011;68476;42.710;23.388;2024-03-23T12:31:03;7.10;;;4.97;;
79074;SDS011;68476;42.710;23.388;2024-03-23T12:33:29;7.40;;;5.38;;
79074;SDS011;68476;42.710;23.388;2024-03-23T12:35:55;9.48;;;5.15;;
79074;SDS011;68476;42.710;23.388;2024-03-23T12:38:20;9.43;;;5.45;;
79074;SDS011;68476;42.710;23.388;2024-03-23T12:40:46;6.45;;;5.18;;
79074;SDS011;68476;42.710;23.388;2024-03-23T12:43:15;8.35;;;5.70;;
79074;SDS011;68476;42.710;23.388;2024-03-23T12:45:41;8.45;;;5.55;;
79074;SDS011;68476;42.710;23.388;2024-03-23T12:48:07;8.80;;;5.60;;
79074;SDS011;68476;42.710;23.388;2024-03-23T12:50:32;8.30;;;5.38;;
79074;SDS011;68476;42.710;23.388;2024-03-23T12:52:58;10.27;;;5.40;;
79074;SDS011;68476;42.710;23.388;2024-03-23T12:55:23;11.15;;;5.00;;
79074;SDS011;68476;42.710;23.388;2024-03-23T12:57:49;7.63;;;5.00;;
79074;SDS011;68476;42.710;23.388;2024-03-23T13:00:15;7.50;;;4.65;;
79074;SDS011;68476;42.710;23.388;2024-03-23T13:02:44;7.85;;;4.47;;
79074;SDS011;68476;42.710;23.388;2024-03-23T13:05:09;7.63;;;4.82;;
79074;SDS011;68476;42.710;23.388;2024-03-23T13:07:35;6.93;;;4.68;;
79074;SDS011;68476;42.710;23.388;2024-03-23T13:10:02;7.40;;;4.80;;
79074;SDS011;68476;42.710;23.388;2024-03-23T13:12:28;7.57;;;4.68;;
79074;SDS011;68476;42.710;23.388;2024-03-23T13:14:53;8.65;;;4.80;;
79074;SDS011;68476;42.710;23.388;2024-03-23T13:17:19;7.93;;;4.93;;
79074;SDS011;68476;42.710;23.388;2024-03-23T13:19:44;7.18;;;4.97;;
79074;SDS011;68476;42.710;23.388;2024-03-23T13:22:10;8.10;;;4.75;;
79074;SDS011;68476;42.710;23.388;2024-03-23T13:24:36;7.45;;;4.55;;
79074;SDS011;68476;42.710;23.388;2024-03-23T13:27:02;6.47;;;4.10;;
79074;SDS011;68476;42.710;23.388;2024-03-23T13:29:29;8.57;;;4.45;;
79074;SDS011;68476;42.710;23.388;2024-03-23T13:31:55;9.52;;;4.68;;
79074;SDS011;68476;42.710;23.388;2024-03-23T13:34:20;5.20;;;4.13;;
79074;SDS011;68476;42.710;23.388;2024-03-23T13:36:46;8.82;;;4.50;;
79074;SDS011;68476;42.710;23.388;2024-03-23T13:39:12;7.50;;;4.40;;
79074;SDS011;68476;42.710;23.388;2024-03-23T13:44:11;5.10;;;3.90;;
79074;SDS011;68476;42.710;23.388;2024-03-23T13:46:38;5.90;;;3.97;;
79074;SDS011;68476;42.710;23.388;2024-03-23T13:49:07;7.35;;;4.13;;
79074;SDS011;68476;42.710;23.388;2024-03-23T13:51:32;7.10;;;4.30;;
79074;SDS011;68476;42.710;23.388;2024-03-23T13:53:58;5.45;;;3.92;;
79074;SDS011;68476;42.710;23.388;2024-03-23T13:56:29;6.10;;;4.00;;
79074;SDS011;68476;42.710;23.388;2024-03-23T13:58:55;3.50;;;2.92;;
79074;SDS011;68476;42.710;23.388;2024-03-23T14:01:21;4.63;;;2.97;;
79074;SDS011;68476;42.710;23.388;2024-03-23T14:03:47;4.35;;;3.00;;
79074;SDS011;68476;42.710;23.388;2024-03-23T14:06:13;4.55;;;3.13;;
79074;SDS011;68476;42.710;23.388;2024-03-23T14:08:38;6.63;;;3.70;;
79074;SDS011;68476;42.710;23.388;2024-03-23T14:11:08;6.20;;;2.80;;
79074;SDS011;68476;42.710;23.388;2024-03-23T14:13:34;30.77;;;4.97;;
79074;SDS011;68476;42.710;23.388;2024-03-23T14:16:00;5.60;;;3.40;;
79074;SDS011;68476;42.710;23.388;2024-03-23T14:18:26;4.53;;;2.95;;
79074;SDS011;68476;42.710;23.388;2024-03-23T14:20:51;7.03;;;3.83;;
79074;SDS011;68476;42.710;23.388;2024-03-23T14:23:18;8.57;;;3.78;;
79074;SDS011;68476;42.710;23.388;2024-03-23T14:25:44;6.28;;;3.92;;
79074;SDS011;68476;42.710;23.388;2024-03-23T14:28:10;5.63;;;3.53;;
79074;SDS011;68476;42.710;23.388;2024-03-23T14:30:40;5.22;;;3.20;;
79074;SDS011;68476;42.710;23.388;2024-03-23T14:33:07;4.70;;;3.33;;
79074;SDS011;68476;42.710;23.388;2024-03-23T14:35:33;10.38;;;4.30;;
79074;SDS011;68476;42.710;23.388;2024-03-23T14:37:59;3.72;;;2.85;;
79074;SDS011;68476;42.710;23.388;2024-03-23T14:40:24;4.35;;;2.78;;
79074;SDS011;68476;42.710;23.388;2024-03-23T14:42:53;5.22;;;2.88;;
79074;SDS011;68476;42.710;23.388;2024-03-23T14:45:20;3.80;;;3.00;;
79074;SDS011;68476;42.710;23.388;2024-03-23T14:47:46;5.32;;;2.90;;
79074;SDS011;68476;42.710;23.388;2024-03-23T14:50:11;5.72;;;3.50;;
79074;SDS011;68476;42.710;23.388;2024-03-23T14:55:06;6.03;;;3.70;;
79074;SDS011;68476;42.710;23.388;2024-03-23T14:57:33;7.45;;;3.58;;
79074;SDS011;68476;42.710;23.388;2024-03-23T15:00:00;4.88;;;3.08;;
79074;SDS011;68476;42.710;23.388;2024-03-23T15:02:25;7.28;;;3.67;;
79074;SDS011;68476;42.710;23.388;2024-03-23T15:04:52;5.80;;;3.10;;
79074;SDS011;68476;42.710;23.388;2024-03-23T15:07:19;6.50;;;3.30;;
79074;SDS011;68476;42.710;23.388;2024-03-23T15:09:44;5.70;;;3.63;;
79074;SDS011;68476;42.710;23.388;2024-03-23T15:12:10;6.00;;;3.10;;
79074;SDS011;68476;42.710;23.388;2024-03-23T15:14:35;4.63;;;3.10;;
79074;SDS011;68476;42.710;23.388;2024-03-23T15:17:01;4.25;;;3.05;;
79074;SDS011;68476;42.710;23.388;2024-03-23T15:21:55;3.53;;;2.70;;
79074;SDS011;68476;42.710;23.388;2024-03-23T15:24:21;5.03;;;3.00;;
79074;SDS011;68476;42.710;23.388;2024-03-23T15:26:47;5.95;;;3.00;;
79074;SDS011;68476;42.710;23.388;2024-03-23T15:29:15;4.75;;;2.83;;
79074;SDS011;68476;42.710;23.388;2024-03-23T15:31:42;4.90;;;2.85;;
79074;SDS011;68476;42.710;23.388;2024-03-23T15:34:08;5.45;;;3.20;;
79074;SDS011;68476;42.710;23.388;2024-03-23T15:36:36;5.63;;;3.10;;
79074;SDS011;68476;42.710;23.388;2024-03-23T15:39:03;6.45;;;3.15;;
79074;SDS011;68476;42.710;23.388;2024-03-23T15:41:29;7.13;;;2.75;;
79074;SDS011;68476;42.710;23.388;2024-03-23T15:43:56;6.13;;;2.65;;